Airfield :
LOGIN :

Register | Disclaimer

   EN    FR    IT 

 










Legend :    VFR   Marginal VFR   IFR   Intensive IFR   Very Intensive IFR
Visi :
Ceiling :
>= 8 km
>= 3000ft
5 to 8 km
1000 to 3000 ft
1500m to 5 km
500 to 1000 ft
800 to 1500m
200 to 500 ft
< 800m
< 200 ft
Symbols :   Thunderstorms  Fog  Heavy snow  Heavy precipitations  Wind > 20 kt
SIGMETs :     Misc.  Thunderstorms  Icing  Turbulence  Mountain Waves  Volcanic Ashes






- Airport Elevation : 5600 ft
- IATA code : SMV


LSZS - Samedan

CURRENT METAR :
  • 230820Z VRB02KT 9999 FEW006 SCT027 BKN055 07/05 Q1017 RMK F TL170

EXPIRED METARs :
  • 230750Z VRB02KT 9999 FEW006 SCT018 BKN027 06/05 Q1017 RMK E TL170
  • 230720Z VRB01KT 9999 FEW006 SCT018 BKN027 06/05 Q1017 RMK D TL170
  • 230650Z 00000KT 8000 -RA FEW006 SCT018 BKN027 05/04 Q1017 RMK C TL170
  • 230620Z 22003KT 7000 RA FEW012 SCT018 BKN027 05/04 Q1017 RMK B TL170
  • 230550Z 18004KT 5000 RA BKN012 OVC031 05/04 Q1017 RMK A TL170
  • 230520Z AUTO 19003KT 6000 RA OVC012 04/04 Q1017
  • 230450Z AUTO 20003KT 6000 RA BKN013 05/04 Q1017
  • 230420Z AUTO 17003KT 9999 -RA BKN008 05/05 Q1017 REDZ
  • 230350Z AUTO 18002KT 9999 DZ BKN008 05/05 Q1017

TAF TAF LSZS
Valid from the 23 at 06:00 until the 23 at 15:00 UTC


230525Z 2306/2315 VRB02KT 9999 -SHRA SCT010 BKN020 TX10/2314Z
PROB40
TEMPO 2306/2315 4500 SHRA BKN012
PROB30
TEMPO 2308/2315 21010KT
ATIS : +41 81 834 93 24



MET'MAP, your aeronautical weather chart ! - Copyright ORBIFLY December 2007 - Disclaimer

ORBIFLY MET'MAP TEAM :

Programming & Development : Alexandra Zaïnal
Original concept : Baudouin d'Aumeries
Technical & hardware support : Manuel Goepfert
Assistance : Marc-Olivier Méhu




SOURCES & CREDITS :

   NOAA